Time;durP1;ratioP1;P1;durP2;ratioP2;P2;SDS_P1;SDS_P2;PMS_P1;PMS_P2;Temp;Humidity;BMP_temperature;BMP_pressure;BME280_temperature;BME280_humidity;BME280_pressure;Samples;Min_cycle;Max_cycle;Signal;HPM_P1;HPM_P2
2022/10/14 00:00:01;;;;;;;8.93;5.90;;;;;;;;;;629441;23;895;-66
2022/10/14 00:00:16;;;;;;;8.73;5.80;;;;;;;;;;629923;23;891;-65
2022/10/14 00:00:32;;;;;;;8.50;5.30;;;;;;;;;;631505;23;883;-65
2022/10/14 00:00:48;;;;;;;7.63;5.20;;;;;;;;;;626797;23;1466;-65
2022/10/14 00:01:06;;;;;;;7.15;5.60;;;;;;;;;;628014;23;952;-66
2022/10/14 00:01:23;;;;;;;8.35;5.75;;;;;;;;;;624894;23;1251;-65
2022/10/14 00:01:38;;;;;;;8.52;5.70;;;;;;;;;;623076;23;1430;-65
2022/10/14 00:01:53;;;;;;;8.67;5.80;;;;;;;;;;624015;23;1214;-65
2022/10/14 00:02:09;;;;;;;9.10;6.10;;;;;;;;;;623481;23;800;-66
2022/10/14 00:02:24;;;;;;;9.33;5.90;;;;;;;;;;623946;23;982;-65
2022/10/14 00:02:40;;;;;;;10.70;5.80;;;;;;;;;;626061;23;781;-65
2022/10/14 00:02:55;;;;;;;10.60;6.10;;;;;;;;;;626542;23;1241;-65
2022/10/14 00:03:10;;;;;;;9.97;6.10;;;;;;;;;;627022;23;890;-65
2022/10/14 00:03:26;;;;;;;9.80;6.10;;;;;;;;;;630783;23;850;-65
2022/10/14 00:03:42;;;;;;;8.77;6.00;;;;;;;;;;625274;23;1015;-65
2022/10/14 00:03:58;;;;;;;8.32;5.88;;;;;;;;;;627533;23;1652;-65
2022/10/14 00:04:14;;;;;;;9.18;6.05;;;;;;;;;;627318;23;975;-66
2022/10/14 00:04:29;;;;;;;9.05;6.47;;;;;;;;;;627846;23;1714;-65
2022/10/14 00:04:45;;;;;;;8.75;6.32;;;;;;;;;;628219;23;1322;-65
2022/10/14 00:05:00;;;;;;;8.37;6.10;;;;;;;;;;627292;23;894;-66
2022/10/14 00:05:15;;;;;;;9.70;6.60;;;;;;;;;;624125;23;931;-65
2022/10/14 00:05:31;;;;;;;9.87;6.53;;;;;;;;;;622757;23;1171;-65
2022/10/14 00:05:47;;;;;;;9.23;6.28;;;;;;;;;;625149;23;963;-66
2022/10/14 00:06:05;;;;;;;8.48;6.10;;;;;;;;;;624586;23;851;-66
2022/10/14 00:06:29;;;;;;;8.48;6.25;;;;;;;;;;624778;23;1192;-65
2022/10/14 00:06:44;;;;;;;8.57;6.25;;;;;;;;;;626979;23;799;-65
2022/10/14 00:06:59;;;;;;;8.43;6.10;;;;;;;;;;627265;23;860;-65
2022/10/14 00:07:14;;;;;;;9.57;6.60;;;;;;;;;;630457;23;959;-65
2022/10/14 00:07:30;;;;;;;10.35;6.72;;;;;;;;;;631422;23;1025;-66
2022/10/14 00:07:45;;;;;;;8.37;6.20;;;;;;;;;;629431;23;803;-65
2022/10/14 00:08:00;;;;;;;8.03;5.97;;;;;;;;;;631215;23;931;-65
2022/10/14 00:08:16;;;;;;;9.38;5.88;;;;;;;;;;631052;23;2510;-65
2022/10/14 00:08:31;;;;;;;9.30;5.80;;;;;;;;;;628038;23;1145;-65
2022/10/14 00:08:46;;;;;;;7.73;5.63;;;;;;;;;;628000;23;959;-65
2022/10/14 00:09:07;;;;;;;8.03;5.97;;;;;;;;;;627331;23;915;-65
2022/10/14 00:09:22;;;;;;;8.52;6.32;;;;;;;;;;628158;23;880;-65
2022/10/14 00:09:38;;;;;;;7.38;5.95;;;;;;;;;;626879;23;804;-65
2022/10/14 00:09:54;;;;;;;8.27;5.72;;;;;;;;;;627870;23;883;-65
2022/10/14 00:10:09;;;;;;;8.87;5.60;;;;;;;;;;629633;23;1171;-65
2022/10/14 00:10:24;;;;;;;9.37;5.87;;;;;;;;;;627831;23;1153;-65
2022/10/14 00:10:39;;;;;;;9.97;6.07;;;;;;;;;;624714;23;1222;-65
2022/10/14 00:10:55;;;;;;;8.73;5.82;;;;;;;;;;624136;23;954;-65
2022/10/14 00:11:14;;;;;;;7.70;5.47;;;;;;;;;;624827;23;1150;-65
2022/10/14 00:11:31;;;;;;;7.75;5.30;;;;;;;;;;624863;23;907;-65
2022/10/14 00:11:46;;;;;;;6.82;5.35;;;;;;;;;;624738;23;894;-66
2022/10/14 00:12:02;;;;;;;6.37;5.13;;;;;;;;;;626308;23;851;-65
2022/10/14 00:12:17;;;;;;;6.88;5.07;;;;;;;;;;629593;23;1933;-65
2022/10/14 00:12:33;;;;;;;6.73;5.30;;;;;;;;;;630785;23;1168;-66
2022/10/14 00:12:49;;;;;;;7.10;5.55;;;;;;;;;;629507;23;930;-64
2022/10/14 00:13:04;;;;;;;6.72;5.50;;;;;;;;;;631063;23;800;-65
2022/10/14 00:13:20;;;;;;;6.47;5.45;;;;;;;;;;630952;23;1283;-65
2022/10/14 00:13:35;;;;;;;6.63;5.30;;;;;;;;;;627214;23;2171;-65
2022/10/14 00:13:55;;;;;;;6.93;5.40;;;;;;;;;;627794;23;977;-65
2022/10/14 00:14:14;;;;;;;6.85;5.13;;;;;;;;;;628224;23;1065;-65
2022/10/14 00:14:29;;;;;;;7.63;5.05;;;;;;;;;;624495;23;1876;-66
2022/10/14 00:14:44;;;;;;;8.37;5.47;;;;;;;;;;624526;23;997;-65
2022/10/14 00:15:00;;;;;;;7.38;5.22;;;;;;;;;;624692;23;824;-65
2022/10/14 00:15:16;;;;;;;6.37;4.80;;;;;;;;;;626509;23;933;-65
2022/10/14 00:15:36;;;;;;;7.10;4.70;;;;;;;;;;626413;23;1175;-65
2022/10/14 00:15:52;;;;;;;6.75;4.88;;;;;;;;;;624972;23;1013;-66
2022/10/14 00:16:16;;;;;;;6.70;4.90;;;;;;;;;;622331;23;1054;-65
2022/10/14 00:16:35;;;;;;;6.93;4.88;;;;;;;;;;624335;23;907;-66
2022/10/14 00:16:53;;;;;;;6.60;4.90;;;;;;;;;;625987;23;863;-65
2022/10/14 00:17:08;;;;;;;7.25;4.80;;;;;;;;;;627491;23;887;-65
2022/10/14 00:17:23;;;;;;;7.80;4.87;;;;;;;;;;629064;23;951;-66
2022/10/14 00:17:39;;;;;;;7.03;4.90;;;;;;;;;;630012;23;955;-65
2022/10/14 00:17:54;;;;;;;6.37;4.77;;;;;;;;;;633667;23;1147;-65
2022/10/14 00:18:10;;;;;;;7.35;4.70;;;;;;;;;;633834;23;808;-65
2022/10/14 00:18:25;;;;;;;8.60;4.80;;;;;;;;;;633116;23;932;-66
2022/10/14 00:18:40;;;;;;;7.27;4.60;;;;;;;;;;630600;23;881;-66
2022/10/14 00:18:56;;;;;;;7.40;4.50;;;;;;;;;;630991;23;915;-65
2022/10/14 00:19:13;;;;;;;7.43;4.50;;;;;;;;;;630880;23;1001;-65
2022/10/14 00:19:28;;;;;;;5.97;4.25;;;;;;;;;;631413;23;907;-66
2022/10/14 00:19:44;;;;;;;6.32;4.25;;;;;;;;;;627418;23;848;-66
2022/10/14 00:19:59;;;;;;;6.67;4.30;;;;;;;;;;628007;23;919;-66
2022/10/14 00:20:14;;;;;;;7.60;4.53;;;;;;;;;;627832;23;900;-66
2022/10/14 00:20:30;;;;;;;7.32;4.78;;;;;;;;;;628547;23;895;-66
2022/10/14 00:20:53;;;;;;;6.60;4.70;;;;;;;;;;631152;23;891;-66
2022/10/14 00:21:08;;;;;;;7.75;4.50;;;;;;;;;;631291;23;931;-65
2022/10/14 00:21:24;;;;;;;8.27;4.50;;;;;;;;;;627595;23;1344;-65
2022/10/14 00:21:43;;;;;;;8.17;4.50;;;;;;;;;;626282;23;1284;-65
2022/10/14 00:21:58;;;;;;;7.90;4.50;;;;;;;;;;628424;23;831;-66
2022/10/14 00:22:14;;;;;;;7.20;4.60;;;;;;;;;;625374;23;856;-65
2022/10/14 00:22:29;;;;;;;7.38;4.57;;;;;;;;;;621237;23;1014;-65
2022/10/14 00:22:44;;;;;;;7.70;4.33;;;;;;;;;;621342;23;933;-64
2022/10/14 00:23:00;;;;;;;7.05;4.15;;;;;;;;;;618280;23;1127;-66
2022/10/14 00:23:15;;;;;;;6.73;4.43;;;;;;;;;;620719;23;918;-66
2022/10/14 00:23:31;;;;;;;7.80;4.70;;;;;;;;;;623238;23;848;-65
2022/10/14 00:23:46;;;;;;;7.28;4.47;;;;;;;;;;624976;23;841;-66
2022/10/14 00:24:01;;;;;;;5.57;4.27;;;;;;;;;;624608;23;981;-66
2022/10/14 00:24:17;;;;;;;7.03;4.55;;;;;;;;;;628516;23;836;-66
2022/10/14 00:24:32;;;;;;;7.35;4.60;;;;;;;;;;627640;23;1307;-65
2022/10/14 00:24:48;;;;;;;6.33;4.47;;;;;;;;;;621824;23;1245;-65
2022/10/14 00:25:03;;;;;;;7.30;4.53;;;;;;;;;;624333;23;883;-66
2022/10/14 00:25:19;;;;;;;7.90;4.57;;;;;;;;;;620597;23;1230;-66
2022/10/14 00:25:36;;;;;;;7.13;4.53;;;;;;;;;;619238;23;766;-65
2022/10/14 00:25:53;;;;;;;6.57;4.60;;;;;;;;;;619021;23;927;-65
2022/10/14 00:26:23;;;;;;;6.95;4.70;;;;;;;;;;618963;23;976;-65
2022/10/14 00:26:39;;;;;;;6.05;4.30;;;;;;;;;;623973;23;828;-66
2022/10/14 00:26:54;;;;;;;5.97;4.30;;;;;;;;;;627378;23;851;-66
2022/10/14 00:27:10;;;;;;;6.20;4.30;;;;;;;;;;625212;23;1016;-66
2022/10/14 00:27:25;;;;;;;6.23;4.10;;;;;;;;;;628640;23;888;-66
2022/10/14 00:27:40;;;;;;;6.03;4.10;;;;;;;;;;627351;23;967;-66
2022/10/14 00:27:55;;;;;;;5.75;4.25;;;;;;;;;;628268;23;947;-65
2022/10/14 00:28:11;;;;;;;5.37;4.17;;;;;;;;;;627295;23;899;-65
2022/10/14 00:28:26;;;;;;;5.33;4.03;;;;;;;;;;628175;23;942;-65
2022/10/14 00:28:42;;;;;;;5.75;4.28;;;;;;;;;;627978;23;863;-66
2022/10/14 00:28:58;;;;;;;5.37;4.17;;;;;;;;;;619314;23;997;-65
2022/10/14 00:29:17;;;;;;;6.65;4.13;;;;;;;;;;618031;23;1308;-66
2022/10/14 00:29:32;;;;;;;7.68;4.22;;;;;;;;;;620402;23;880;-65
2022/10/14 00:29:48;;;;;;;7.53;4.37;;;;;;;;;;621676;23;851;-65
2022/10/14 00:30:03;;;;;;;8.13;4.57;;;;;;;;;;621572;23;877;-65
2022/10/14 00:30:19;;;;;;;6.28;4.50;;;;;;;;;;622056;23;1081;-65
2022/10/14 00:30:34;;;;;;;6.10;4.57;;;;;;;;;;621558;23;1347;-65
2022/10/14 00:31:00;;;;;;;6.65;4.57;;;;;;;;;;624648;23;879;-65
2022/10/14 00:31:16;;;;;;;6.20;4.43;;;;;;;;;;630824;23;865;-65
2022/10/14 00:31:32;;;;;;;6.82;4.60;;;;;;;;;;629911;23;1045;-65
2022/10/14 00:31:47;;;;;;;6.50;4.43;;;;;;;;;;630709;23;949;-65
2022/10/14 00:32:03;;;;;;;6.07;4.65;;;;;;;;;;631469;23;804;-66
2022/10/14 00:32:18;;;;;;;5.67;4.70;;;;;;;;;;630559;23;1905;-65
2022/10/14 00:32:33;;;;;;;6.65;4.70;;;;;;;;;;630841;23;796;-65
2022/10/14 00:32:49;;;;;;;6.27;4.60;;;;;;;;;;629823;23;842;-65
2022/10/14 00:33:04;;;;;;;5.20;4.23;;;;;;;;;;631251;23;796;-66
2022/10/14 00:33:19;;;;;;;6.17;4.20;;;;;;;;;;631332;23;887;-66
2022/10/14 00:33:34;;;;;;;7.15;4.28;;;;;;;;;;630793;23;1207;-66
2022/10/14 00:33:50;;;;;;;6.67;4.20;;;;;;;;;;627348;23;1288;-65
2022/10/14 00:34:05;;;;;;;6.97;4.20;;;;;;;;;;627402;23;923;-66
2022/10/14 00:34:21;;;;;;;7.07;4.30;;;;;;;;;;627805;23;890;-66
2022/10/14 00:34:36;;;;;;;6.53;4.50;;;;;;;;;;627857;23;1176;-66
2022/10/14 00:34:52;;;;;;;7.38;4.50;;;;;;;;;;627180;23;835;-66
2022/10/14 00:35:07;;;;;;;8.50;4.30;;;;;;;;;;627435;23;871;-65
2022/10/14 00:35:22;;;;;;;7.88;4.50;;;;;;;;;;628069;23;1151;-65
2022/10/14 00:35:38;;;;;;;7.00;4.40;;;;;;;;;;630339;23;795;-66
2022/10/14 00:35:54;;;;;;;6.30;4.27;;;;;;;;;;630776;23;1437;-66
2022/10/14 00:36:11;;;;;;;6.68;4.30;;;;;;;;;;628017;23;982;-66
2022/10/14 00:36:26;;;;;;;7.05;4.15;;;;;;;;;;627649;23;1626;-66
2022/10/14 00:36:42;;;;;;;6.88;4.22;;;;;;;;;;627725;23;944;-65
2022/10/14 00:36:57;;;;;;;6.82;4.50;;;;;;;;;;627265;23;832;-66
2022/10/14 00:37:13;;;;;;;7.63;4.60;;;;;;;;;;627624;23;887;-66
2022/10/14 00:37:28;;;;;;;7.23;4.43;;;;;;;;;;627324;23;800;-66
2022/10/14 00:37:43;;;;;;;5.88;4.45;;;;;;;;;;628279;23;883;-65
2022/10/14 00:37:59;;;;;;;5.50;4.20;;;;;;;;;;630888;23;1086;-65
2022/10/14 00:38:14;;;;;;;6.43;4.10;;;;;;;;;;631003;23;823;-65
2022/10/14 00:38:29;;;;;;;6.47;4.23;;;;;;;;;;631040;23;891;-66
2022/10/14 00:38:45;;;;;;;5.85;4.25;;;;;;;;;;627326;23;1374;-66
2022/10/14 00:39:01;;;;;;;5.78;4.10;;;;;;;;;;628424;23;856;-65
2022/10/14 00:39:16;;;;;;;6.00;4.30;;;;;;;;;;627430;23;998;-66
2022/10/14 00:39:31;;;;;;;6.78;4.45;;;;;;;;;;628224;23;964;-66
2022/10/14 00:39:47;;;;;;;7.63;4.40;;;;;;;;;;627422;23;863;-65
2022/10/14 00:40:04;;;;;;;7.37;4.33;;;;;;;;;;625518;23;1169;-66
2022/10/14 00:40:20;;;;;;;7.00;4.10;;;;;;;;;;622754;23;1264;-65
2022/10/14 00:40:35;;;;;;;7.13;4.20;;;;;;;;;;625485;23;860;-66
2022/10/14 00:40:51;;;;;;;6.77;4.10;;;;;;;;;;624474;23;1236;-65
2022/10/14 00:41:09;;;;;;;6.90;4.13;;;;;;;;;;624206;23;1049;-66
2022/10/14 00:41:27;;;;;;;7.13;4.40;;;;;;;;;;621826;23;1383;-65
2022/10/14 00:41:44;;;;;;;6.78;4.15;;;;;;;;;;622127;23;860;-66
2022/10/14 00:41:59;;;;;;;5.80;4.20;;;;;;;;;;624067;23;839;-66
2022/10/14 00:42:14;;;;;;;6.03;4.18;;;;;;;;;;626542;23;854;-65
2022/10/14 00:42:33;;;;;;;7.13;4.47;;;;;;;;;;627827;23;878;-65
2022/10/14 00:42:48;;;;;;;7.20;4.32;;;;;;;;;;629268;23;795;-66
2022/10/14 00:43:03;;;;;;;6.77;4.40;;;;;;;;;;630600;23;819;-66
2022/10/14 00:43:19;;;;;;;6.07;4.47;;;;;;;;;;628832;23;1014;-66
2022/10/14 00:43:56;;;;;;;5.82;4.30;;;;;;;;;;630307;23;1133;-66
2022/10/14 00:44:11;;;;;;;7.38;4.78;;;;;;;;;;631001;23;863;-65
2022/10/14 00:44:27;;;;;;;6.00;4.90;;;;;;;;;;630087;23;947;-65
2022/10/14 00:44:42;;;;;;;5.77;4.63;;;;;;;;;;630757;23;843;-66
2022/10/14 00:45:11;;;;;;;5.10;4.37;;;;;;;;;;630784;23;1165;-65
2022/10/14 00:45:27;;;;;;;7.78;4.90;;;;;;;;;;630885;23;816;-65
2022/10/14 00:45:42;;;;;;;7.37;4.90;;;;;;;;;;626635;23;1241;-66
2022/10/14 00:45:57;;;;;;;6.75;4.40;;;;;;;;;;627976;23;980;-66
2022/10/14 00:46:13;;;;;;;7.47;4.43;;;;;;;;;;628078;23;776;-66
2022/10/14 00:46:35;;;;;;;7.37;4.70;;;;;;;;;;627846;23;1360;-65
2022/10/14 00:46:51;;;;;;;6.35;4.50;;;;;;;;;;629627;23;874;-66
2022/10/14 00:47:06;;;;;;;6.00;4.33;;;;;;;;;;624948;23;1271;-65
2022/10/14 00:47:21;;;;;;;5.63;4.20;;;;;;;;;;625035;23;1009;-66
2022/10/14 00:47:38;;;;;;;6.70;4.47;;;;;;;;;;623895;23;852;-66
2022/10/14 00:47:53;;;;;;;6.70;4.40;;;;;;;;;;624661;23;947;-66
2022/10/14 00:48:09;;;;;;;6.55;4.45;;;;;;;;;;625038;23;775;-66
2022/10/14 00:48:25;;;;;;;7.32;4.60;;;;;;;;;;624588;23;907;-65
2022/10/14 00:48:40;;;;;;;7.07;4.33;;;;;;;;;;624372;23;895;-66
2022/10/14 00:48:58;;;;;;;6.55;4.25;;;;;;;;;;626049;23;884;-66
2022/10/14 00:49:23;;;;;;;7.43;4.32;;;;;;;;;;630994;23;748;-66
2022/10/14 00:49:42;;;;;;;6.18;4.50;;;;;;;;;;630570;23;965;-66
2022/10/14 00:49:58;;;;;;;5.65;4.47;;;;;;;;;;630780;23;1941;-65
2022/10/14 00:50:14;;;;;;;6.38;4.30;;;;;;;;;;631126;23;918;-66
2022/10/14 00:50:30;;;;;;;7.15;4.28;;;;;;;;;;627160;23;1371;-66
2022/10/14 00:50:48;;;;;;;7.10;4.25;;;;;;;;;;627038;23;1393;-65
2022/10/14 00:51:03;;;;;;;6.22;4.45;;;;;;;;;;624715;23;2046;-66
2022/10/14 00:51:19;;;;;;;6.07;4.45;;;;;;;;;;625259;23;879;-65
2022/10/14 00:51:37;;;;;;;6.60;4.10;;;;;;;;;;624485;23;931;-65
2022/10/14 00:52:12;;;;;;;6.15;4.10;;;;;;;;;;626744;23;1264;-66
2022/10/14 00:52:28;;;;;;;6.43;4.38;;;;;;;;;;627092;23;1045;-65
2022/10/14 00:52:44;;;;;;;7.10;4.55;;;;;;;;;;626909;23;824;-65
2022/10/14 00:53:00;;;;;;;7.40;4.65;;;;;;;;;;626811;23;994;-65
2022/10/14 00:53:16;;;;;;;6.37;4.50;;;;;;;;;;627248;23;1295;-66
2022/10/14 00:53:32;;;;;;;5.78;4.18;;;;;;;;;;627240;23;1087;-66
2022/10/14 00:53:47;;;;;;;6.30;4.20;;;;;;;;;;629659;23;780;-66
2022/10/14 00:54:03;;;;;;;7.93;4.47;;;;;;;;;;630174;23;1314;-65
2022/10/14 00:54:23;;;;;;;7.95;4.50;;;;;;;;;;630874;23;994;-66
2022/10/14 00:54:49;;;;;;;6.35;4.43;;;;;;;;;;630426;23;847;-65
2022/10/14 00:55:12;;;;;;;7.72;4.25;;;;;;;;;;629515;23;1014;-65
2022/10/14 00:55:29;;;;;;;6.32;4.32;;;;;;;;;;626729;23;1050;-65
2022/10/14 00:55:46;;;;;;;9.00;4.40;;;;;;;;;;627445;23;1394;-66
2022/10/14 00:56:04;;;;;;;9.40;4.20;;;;;;;;;;629995;23;860;-66
2022/10/14 00:56:23;;;;;;;7.55;4.30;;;;;;;;;;630198;23;1460;-66
2022/10/14 00:56:40;;;;;;;8.93;4.28;;;;;;;;;;627735;23;2014;-66
2022/10/14 00:56:55;;;;;;;7.30;4.20;;;;;;;;;;628223;23;1015;-66
2022/10/14 00:57:10;;;;;;;7.07;4.30;;;;;;;;;;627221;23;1542;-65
2022/10/14 00:57:27;;;;;;;7.93;4.40;;;;;;;;;;628374;23;823;-66
2022/10/14 00:57:43;;;;;;;7.15;4.47;;;;;;;;;;628733;23;957;-66
2022/10/14 00:57:59;;;;;;;7.10;4.57;;;;;;;;;;630850;23;906;-65
2022/10/14 00:58:14;;;;;;;6.63;4.43;;;;;;;;;;629286;23;1014;-66
2022/10/14 00:58:30;;;;;;;6.80;4.40;;;;;;;;;;628993;23;943;-66
2022/10/14 00:58:45;;;;;;;7.20;4.47;;;;;;;;;;630728;23;942;-66
2022/10/14 00:59:03;;;;;;;7.28;4.50;;;;;;;;;;630634;23;1252;-65
2022/10/14 00:59:18;;;;;;;7.53;4.40;;;;;;;;;;631293;23;868;-66
2022/10/14 00:59:34;;;;;;;6.05;4.10;;;;;;;;;;630867;23;999;-66
2022/10/14 00:59:50;;;;;;;4.83;3.97;;;;;;;;;;626821;23;1272;-66
2022/10/14 01:00:12;;;;;;;5.00;3.83;;;;;;;;;;626783;23;944;-65
2022/10/14 01:00:27;;;;;;;4.70;3.90;;;;;;;;;;627170;23;1979;-66
2022/10/14 01:00:43;;;;;;;6.10;4.03;;;;;;;;;;627728;23;963;-66
2022/10/14 01:00:58;;;;;;;6.03;3.87;;;;;;;;;;630221;23;906;-66
2022/10/14 01:01:13;;;;;;;4.88;4.00;;;;;;;;;;627554;23;907;-66
2022/10/14 01:01:29;;;;;;;6.47;4.20;;;;;;;;;;627982;23;947;-66
2022/10/14 01:01:44;;;;;;;6.83;4.20;;;;;;;;;;623602;23;1050;-66
2022/10/14 01:01:59;;;;;;;5.78;4.00;;;;;;;;;;625005;23;880;-65
2022/10/14 01:02:14;;;;;;;5.70;3.80;;;;;;;;;;625301;23;824;-66
2022/10/14 01:02:30;;;;;;;7.13;3.80;;;;;;;;;;628592;23;995;-66
2022/10/14 01:02:46;;;;;;;7.47;3.90;;;;;;;;;;627035;23;954;-66
2022/10/14 01:03:09;;;;;;;6.03;4.07;;;;;;;;;;628350;23;890;-65
2022/10/14 01:03:25;;;;;;;5.40;4.00;;;;;;;;;;625838;23;2011;-65
2022/10/14 01:03:40;;;;;;;5.47;4.00;;;;;;;;;;629952;23;698;-66
2022/10/14 01:03:56;;;;;;;6.55;4.10;;;;;;;;;;630839;23;835;-66
2022/10/14 01:04:11;;;;;;;7.73;4.47;;;;;;;;;;631183;23;760;-66
2022/10/14 01:04:26;;;;;;;6.03;4.30;;;;;;;;;;630746;23;985;-66
2022/10/14 01:04:43;;;;;;;5.43;4.00;;;;;;;;;;626986;23;1197;-66
2022/10/14 01:05:00;;;;;;;6.80;4.20;;;;;;;;;;627770;23;1222;-65
2022/10/14 01:05:17;;;;;;;6.25;4.13;;;;;;;;;;628745;23;891;-65
2022/10/14 01:05:39;;;;;;;5.50;3.83;;;;;;;;;;630836;23;1014;-66
2022/10/14 01:06:00;;;;;;;6.95;3.90;;;;;;;;;;630642;23;1018;-66
2022/10/14 01:06:26;;;;;;;7.10;3.78;;;;;;;;;;630703;23;974;-65
2022/10/14 01:07:02;;;;;;;5.47;3.60;;;;;;;;;;630654;23;883;-66
2022/10/14 01:07:44;;;;;;;5.05;3.40;;;;;;;;;;630698;23;791;-66
2022/10/14 01:08:36;;;;;;;4.55;3.40;;;;;;;;;;630176;23;835;-66
2022/10/14 01:08:59;;;;;;;5.97;3.90;;;;;;;;;;620465;23;1363;-66
2022/10/14 01:09:20;;;;;;;5.93;4.22;;;;;;;;;;617825;23;986;-66
2022/10/14 01:09:50;;;;;;;6.53;4.38;;;;;;;;;;619059;23;959;-66
2022/10/14 01:10:49;;;;;;;5.88;4.32;;;;;;;;;;623032;23;1026;-66
2022/10/14 01:11:31;;;;;;;6.68;4.20;;;;;;;;;;628322;23;835;-65
2022/10/14 01:12:14;;;;;;;5.78;3.90;;;;;;;;;;630372;23;866;-65
2022/10/14 01:13:01;;;;;;;6.85;3.95;;;;;;;;;;630998;23;966;-66
2022/10/14 01:13:28;;;;;;;8.68;3.75;;;;;;;;;;630610;23;1452;-66
2022/10/14 01:14:07;;;;;;;5.93;3.65;;;;;;;;;;630742;23;935;-65
2022/10/14 01:14:36;;;;;;;5.05;3.70;;;;;;;;;;630605;23;919;-65
2022/10/14 01:15:10;;;;;;;5.10;3.83;;;;;;;;;;630819;23;834;-66
2022/10/14 01:15:32;;;;;;;5.93;3.90;;;;;;;;;;630372;23;953;-65
2022/10/14 01:15:59;;;;;;;6.10;3.90;;;;;;;;;;631546;23;970;-66
2022/10/14 01:16:50;;;;;;;6.07;3.80;;;;;;;;;;631114;23;1436;-66
2022/10/14 01:17:16;;;;;;;7.05;4.10;;;;;;;;;;624005;23;945;-65
2022/10/14 01:17:35;;;;;;;5.80;3.90;;;;;;;;;;630498;23;867;-65
2022/10/14 01:18:19;;;;;;;6.32;3.80;;;;;;;;;;630358;23;880;-66
2022/10/14 01:18:42;;;;;;;7.30;3.88;;;;;;;;;;630474;23;835;-65
2022/10/14 01:19:27;;;;;;;7.10;3.70;;;;;;;;;;628988;23;1999;-66
2022/10/14 01:20:05;;;;;;;7.57;4.00;;;;;;;;;;626866;23;1308;-66
2022/10/14 01:20:45;;;;;;;6.18;3.67;;;;;;;;;;624742;23;1150;-66
2022/10/14 01:21:22;;;;;;;5.70;3.90;;;;;;;;;;615834;24;1019;-65
2022/10/14 01:21:49;;;;;;;5.50;4.00;;;;;;;;;;616308;23;914;-66
2022/10/14 01:22:27;;;;;;;6.28;3.60;;;;;;;;;;626922;23;1265;-66
2022/10/14 01:23:07;;;;;;;6.35;3.60;;;;;;;;;;630265;23;887;-66
2022/10/14 01:23:41;;;;;;;6.10;3.80;;;;;;;;;;627736;23;947;-66
2022/10/14 01:24:04;;;;;;;6.28;3.72;;;;;;;;;;628739;23;903;-66
2022/10/14 01:24:37;;;;;;;8.30;3.55;;;;;;;;;;630155;23;875;-65
2022/10/14 01:25:00;;;;;;;6.25;3.92;;;;;;;;;;631026;23;1038;-66
2022/10/14 01:25:28;;;;;;;7.20;4.07;;;;;;;;;;630761;23;931;-66
2022/10/14 01:26:21;;;;;;;5.90;3.63;;;;;;;;;;629874;23;887;-65
2022/10/14 01:26:43;;;;;;;5.53;3.60;;;;;;;;;;630498;23;839;-65
2022/10/14 01:27:08;;;;;;;4.68;3.60;;;;;;;;;;630787;23;875;-66
2022/10/14 01:27:50;;;;;;;6.68;3.70;;;;;;;;;;627605;23;1260;-65
2022/10/14 01:28:32;;;;;;;5.90;3.55;;;;;;;;;;630492;23;887;-66
2022/10/14 01:29:15;;;;;;;5.28;3.40;;;;;;;;;;631202;23;828;-66
2022/10/14 01:29:59;;;;;;;6.18;3.80;;;;;;;;;;633415;23;870;-65
2022/10/14 01:30:16;;;;;;;5.10;3.65;;;;;;;;;;630911;23;871;-66
2022/10/14 01:30:36;;;;;;;4.72;3.60;;;;;;;;;;630602;23;820;-66
2022/10/14 01:30:59;;;;;;;5.78;3.83;;;;;;;;;;631407;23;1061;-66
2022/10/14 01:31:20;;;;;;;4.75;3.63;;;;;;;;;;630266;23;871;-66
2022/10/14 01:31:43;;;;;;;6.03;3.53;;;;;;;;;;630058;23;879;-65
2022/10/14 01:32:09;;;;;;;6.82;3.70;;;;;;;;;;630643;23;910;-65
2022/10/14 01:32:59;;;;;;;7.47;3.80;;;;;;;;;;630164;23;1937;-66
2022/10/14 01:33:25;;;;;;;7.68;3.63;;;;;;;;;;626793;23;1235;-65
2022/10/14 01:33:44;;;;;;;5.97;3.60;;;;;;;;;;627791;23;994;-65
2022/10/14 01:34:04;;;;;;;5.07;3.50;;;;;;;;;;626950;23;1315;-65
2022/10/14 01:34:26;;;;;;;7.60;3.67;;;;;;;;;;630055;23;889;-66
2022/10/14 01:34:52;;;;;;;8.05;3.83;;;;;;;;;;626957;23;986;-66
2022/10/14 01:35:17;;;;;;;7.13;3.45;;;;;;;;;;628377;23;911;-66
2022/10/14 01:36:09;;;;;;;5.40;3.50;;;;;;;;;;627059;23;2110;-65
2022/10/14 01:36:35;;;;;;;5.50;3.67;;;;;;;;;;628179;23;990;-66
2022/10/14 01:37:00;;;;;;;7.35;3.70;;;;;;;;;;631062;23;1156;-66
2022/10/14 01:37:21;;;;;;;6.07;3.55;;;;;;;;;;630741;23;874;-66
2022/10/14 01:37:44;;;;;;;5.10;3.50;;;;;;;;;;630155;23;906;-66
2022/10/14 01:38:36;;;;;;;4.85;3.30;;;;;;;;;;630339;23;841;-65
2022/10/14 01:39:05;;;;;;;7.65;3.58;;;;;;;;;;626469;23;1160;-66
2022/10/14 01:39:24;;;;;;;5.57;3.50;;;;;;;;;;627269;23;895;-65
2022/10/14 01:39:44;;;;;;;5.32;3.50;;;;;;;;;;630485;23;1001;-64
2022/10/14 01:40:07;;;;;;;6.20;3.60;;;;;;;;;;630801;23;871;-66
2022/10/14 01:40:34;;;;;;;7.05;3.60;;;;;;;;;;627962;23;1295;-66
2022/10/14 01:41:16;;;;;;;5.10;3.70;;;;;;;;;;628007;23;840;-66
2022/10/14 01:41:36;;;;;;;6.20;3.50;;;;;;;;;;628678;23;1311;-66
2022/10/14 01:41:59;;;;;;;6.32;3.78;;;;;;;;;;630719;23;916;-66
2022/10/14 01:42:23;;;;;;;6.65;3.85;;;;;;;;;;628736;23;1114;-67
2022/10/14 01:42:41;;;;;;;6.35;3.70;;;;;;;;;;626306;23;874;-65
2022/10/14 01:42:59;;;;;;;5.47;3.83;;;;;;;;;;627928;23;934;-66
2022/10/14 01:43:18;;;;;;;5.80;3.83;;;;;;;;;;627042;23;1019;-66
2022/10/14 01:43:34;;;;;;;5.20;3.85;;;;;;;;;;627623;23;887;-66
2022/10/14 01:43:51;;;;;;;5.78;3.80;;;;;;;;;;627807;23;856;-65
2022/10/14 01:44:11;;;;;;;6.20;3.83;;;;;;;;;;628753;23;907;-66
2022/10/14 01:44:29;;;;;;;6.22;3.80;;;;;;;;;;630853;23;1038;-65
2022/10/14 01:44:50;;;;;;;6.18;3.83;;;;;;;;;;629576;23;907;-65
2022/10/14 01:45:15;;;;;;;8.25;4.25;;;;;;;;;;631015;23;1006;-66
2022/10/14 01:45:34;;;;;;;7.53;4.10;;;;;;;;;;631226;23;855;-65
2022/10/14 01:45:52;;;;;;;7.60;4.10;;;;;;;;;;630703;23;1078;-65
2022/10/14 01:46:09;;;;;;;6.32;4.28;;;;;;;;;;628148;23;875;-66
2022/10/14 01:46:26;;;;;;;5.15;4.18;;;;;;;;;;626353;23;910;-66
2022/10/14 01:46:48;;;;;;;5.15;4.00;;;;;;;;;;630253;23;847;-66
2022/10/14 01:47:05;;;;;;;6.50;4.32;;;;;;;;;;630111;23;906;-66
2022/10/14 01:47:24;;;;;;;6.93;4.35;;;;;;;;;;631205;23;1034;-65
2022/10/14 01:47:40;;;;;;;5.93;4.35;;;;;;;;;;629706;23;993;-66
2022/10/14 01:47:57;;;;;;;5.53;4.13;;;;;;;;;;630695;23;970;-66
2022/10/14 01:48:16;;;;;;;5.28;4.18;;;;;;;;;;631027;23;904;-66
2022/10/14 01:48:36;;;;;;;6.68;4.40;;;;;;;;;;630240;23;843;-66
2022/10/14 01:48:56;;;;;;;6.65;4.40;;;;;;;;;;630758;23;962;-65
2022/10/14 01:49:20;;;;;;;6.07;4.13;;;;;;;;;;631307;23;827;-66
2022/10/14 01:49:41;;;;;;;6.75;4.40;;;;;;;;;;630033;23;852;-65
2022/10/14 01:50:02;;;;;;;6.97;4.35;;;;;;;;;;630071;23;963;-65
2022/10/14 01:50:22;;;;;;;7.47;4.13;;;;;;;;;;630548;23;934;-65
2022/10/14 01:50:42;;;;;;;7.05;3.95;;;;;;;;;;629831;23;811;-66
2022/10/14 01:51:01;;;;;;;7.45;4.25;;;;;;;;;;627832;23;1271;-66
2022/10/14 01:51:27;;;;;;;7.07;4.30;;;;;;;;;;627241;23;978;-65
2022/10/14 01:51:47;;;;;;;6.72;4.30;;;;;;;;;;624261;23;2016;-65
2022/10/14 01:52:14;;;;;;;6.53;4.25;;;;;;;;;;624463;23;944;-66
2022/10/14 01:52:38;;;;;;;6.13;4.50;;;;;;;;;;627965;23;1976;-66
2022/10/14 01:53:00;;;;;;;4.85;4.20;;;;;;;;;;629774;23;922;-66
2022/10/14 01:53:23;;;;;;;6.45;4.40;;;;;;;;;;630274;23;970;-65
2022/10/14 01:53:42;;;;;;;6.35;4.32;;;;;;;;;;631449;23;1023;-66
2022/10/14 01:54:10;;;;;;;6.82;4.30;;;;;;;;;;630992;23;1274;-65
2022/10/14 01:54:32;;;;;;;7.68;4.35;;;;;;;;;;630598;23;823;-67
2022/10/14 01:54:51;;;;;;;6.53;4.07;;;;;;;;;;630939;23;1021;-65
2022/10/14 01:55:11;;;;;;;6.85;4.32;;;;;;;;;;630778;23;936;-66
2022/10/14 01:55:29;;;;;;;7.60;4.45;;;;;;;;;;630438;23;926;-66
2022/10/14 01:55:46;;;;;;;7.32;4.78;;;;;;;;;;631052;23;966;-66
2022/10/14 01:56:04;;;;;;;6.40;4.50;;;;;;;;;;634090;23;1030;-66
2022/10/14 01:56:20;;;;;;;6.30;4.30;;;;;;;;;;633406;23;1013;-66
2022/10/14 01:56:36;;;;;;;7.93;4.60;;;;;;;;;;633761;23;902;-66
2022/10/14 01:56:53;;;;;;;8.38;4.50;;;;;;;;;;633115;23;874;-66
2022/10/14 01:57:14;;;;;;;7.18;4.30;;;;;;;;;;633632;23;1056;-66
2022/10/14 01:57:33;;;;;;;7.18;4.53;;;;;;;;;;630664;23;993;-65
2022/10/14 01:57:51;;;;;;;7.13;4.70;;;;;;;;;;630628;23;1071;-65
2022/10/14 01:58:11;;;;;;;6.75;4.68;;;;;;;;;;630977;23;934;-65
2022/10/14 01:58:30;;;;;;;8.23;4.70;;;;;;;;;;630784;23;1025;-65
2022/10/14 01:58:46;;;;;;;9.05;4.82;;;;;;;;;;631085;23;899;-66
2022/10/14 01:59:02;;;;;;;7.90;4.70;;;;;;;;;;624471;23;1418;-65
2022/10/14 01:59:20;;;;;;;6.43;4.40;;;;;;;;;;622011;23;1233;-65
2022/10/14 01:59:37;;;;;;;6.35;4.53;;;;;;;;;;622247;23;858;-66
2022/10/14 01:59:54;;;;;;;6.82;4.60;;;;;;;;;;621720;23;970;-65
2022/10/14 02:00:10;;;;;;;5.70;4.32;;;;;;;;;;620341;23;950;-65
2022/10/14 02:00:25;;;;;;;5.25;4.20;;;;;;;;;;621865;23;1215;-65
2022/10/14 02:00:41;;;;;;;6.40;4.40;;;;;;;;;;621884;23;1182;-66
2022/10/14 02:00:56;;;;;;;7.70;4.50;;;;;;;;;;625314;23;1404;-65
2022/10/14 02:01:11;;;;;;;8.18;4.47;;;;;;;;;;624435;23;1202;-64
2022/10/14 02:01:27;;;;;;;8.33;4.57;;;;;;;;;;624361;23;776;-66
2022/10/14 02:01:42;;;;;;;6.93;4.50;;;;;;;;;;625382;23;768;-66
2022/10/14 02:01:57;;;;;;;6.37;4.57;;;;;;;;;;625008;23;820;-66
2022/10/14 02:02:13;;;;;;;6.28;4.38;;;;;;;;;;621223;23;1311;-66
2022/10/14 02:02:28;;;;;;;6.37;4.20;;;;;;;;;;621937;23;859;-65
2022/10/14 02:02:43;;;;;;;6.65;4.20;;;;;;;;;;624943;23;1421;-65
2022/10/14 02:02:59;;;;;;;6.93;4.30;;;;;;;;;;628142;23;1016;-65